Terminal Aerodrome Forecast
Issued by NWS

Current Version | Previous Version | Graphics & Text | Print | Product List | Glossary On
Versions: 1 2 3 4 5 6 7 8 9 10 11 12 13 14 15 16 17 18 19 20 21 22 23 24 25 26 27 28 29 30 31 32 33 34 35 36 37 38 39 40 41 42 43 44 45
000
FTUS41 KRNK 060540
TAFLWB
TAF
KLWB 060540Z 0606/0706 00000KT 4SM SHRA BR SCT009 OVC015
      TEMPO 0607/0609 2SM +SHRA BR OVC009
     FM061000 00000KT 1/4SM FG VCSH OVC003
     FM061330 25003KT 4SM BR OVC015
     FM061600 27004KT P6SM VCSH OVC040=

USA.gov is the U.S. government's official web portal to all federal, state and local government web resources and services.